Abingdon, Virginia
Current Conditions -  °F | °C
As of 6:15 AM on Saturday 01 Nov 2014 (Local Time) from KVJI Reporting Station
Light Snow Light Snow  
Wind Chill: 35°   Ceiling: 1200
Heat Index: 35°   Visibility: 3mi
Dew Point: 35°   Wind: 0mph
Humidity: 100%   Direction: NA
Pressure: 29.85"   Gusts: NA
Location:  36.71°N, 81.98°W
Report Text: KVJI 011015Z AUTO 00000KT 3SM -SN SCT008 BKN012 OVC022 02/02 A2985 RMK AO2 T00150015
Loading
Personal Weather Stations






























Interactive Weather Map
Tropical Storm Tracking
New forecast layout! Learn more

10-Day Weather Forecast

Advertisements
Track Severe Weather on mobile